createdAt,value
2022-12-22T00:01:05.610Z,0.70
2022-12-22T00:03:51.657Z,0.60
2022-12-22T00:06:37.485Z,0.60
2022-12-22T00:09:22.892Z,0.60
2022-12-22T00:12:09.744Z,0.50
2022-12-22T00:14:55.144Z,0.50
2022-12-22T00:17:44.479Z,0.50
2022-12-22T00:20:34.769Z,0.50
2022-12-22T00:23:20.464Z,0.40
2022-12-22T00:26:06.928Z,0.50
2022-12-22T00:28:55.305Z,0.50
2022-12-22T00:31:41.579Z,0.40
2022-12-22T00:34:33.111Z,0.50
2022-12-22T00:37:18.602Z,0.50
2022-12-22T00:40:03.963Z,0.50
2022-12-22T00:42:49.606Z,0.50
2022-12-22T00:45:36.553Z,0.50
2022-12-22T00:48:22.611Z,0.50
2022-12-22T00:51:08.306Z,0.50
2022-12-22T00:53:54.127Z,0.50
2022-12-22T00:56:39.890Z,0.50
2022-12-22T00:59:28.529Z,0.50
2022-12-22T01:02:15.761Z,0.50
2022-12-22T01:05:01.586Z,0.50
2022-12-22T01:07:47.150Z,0.60
2022-12-22T01:10:34.118Z,0.60
2022-12-22T01:13:19.966Z,0.60
2022-12-22T01:16:05.299Z,0.60
2022-12-22T01:18:52.068Z,0.60
2022-12-22T01:21:38.418Z,0.60
2022-12-22T01:24:29.696Z,0.50
2022-12-22T01:27:14.979Z,0.50
2022-12-22T01:30:00.695Z,0.50
2022-12-22T01:32:46.328Z,0.60
2022-12-22T01:35:39.079Z,0.50
2022-12-22T01:38:24.879Z,0.50
2022-12-22T01:41:11.673Z,0.50
2022-12-22T01:43:57.681Z,0.50
2022-12-22T01:46:45.159Z,0.50
2022-12-22T01:49:34.194Z,0.50
2022-12-22T01:52:21.637Z,0.50
2022-12-22T01:55:07.895Z,0.60
2022-12-22T01:57:54.242Z,0.50
2022-12-22T02:00:40.075Z,0.60
2022-12-22T02:03:34.696Z,0.60
2022-12-22T02:06:40.582Z,0.60
2022-12-22T02:09:45.902Z,0.50
2022-12-22T02:12:43.082Z,0.50
2022-12-22T02:15:36.881Z,0.50
2022-12-22T02:18:27.458Z,0.50
2022-12-22T02:21:19.357Z,0.50
2022-12-22T02:24:30.222Z,0.50
2022-12-22T02:27:20.010Z,0.50
2022-12-22T02:30:10.519Z,0.40
2022-12-22T02:33:05.204Z,0.50
2022-12-22T02:36:00.224Z,0.50
2022-12-22T02:38:55.478Z,0.50
2022-12-22T02:41:51.380Z,0.60
2022-12-22T02:44:46.276Z,0.60
2022-12-22T02:47:39.087Z,0.70
2022-12-22T02:50:35.342Z,0.70
2022-12-22T02:53:22.143Z,0.70
2022-12-22T02:56:08.042Z,0.70
2022-12-22T02:58:53.604Z,0.70
2022-12-22T03:01:40.822Z,0.70
2022-12-22T03:04:26.736Z,0.70
2022-12-22T03:07:12.130Z,0.70
2022-12-22T03:09:57.632Z,0.70
2022-12-22T03:12:42.916Z,0.70
2022-12-22T03:15:28.583Z,0.70
2022-12-22T03:18:20.304Z,0.70
2022-12-22T03:21:05.854Z,0.70
2022-12-22T03:23:51.177Z,0.70
2022-12-22T03:26:19.452Z,0.70
2022-12-22T03:28:48.049Z,0.70
2022-12-22T03:31:16.338Z,0.70
2022-12-22T03:33:46.003Z,0.60
2022-12-22T03:36:14.234Z,0.60
2022-12-22T03:38:42.386Z,0.60
2022-12-22T03:41:31.247Z,0.60
2022-12-22T03:44:22.324Z,0.60
2022-12-22T03:46:50.463Z,0.60
2022-12-22T03:49:22.469Z,0.60
2022-12-22T03:51:51.996Z,0.60
2022-12-22T03:54:22.695Z,0.50
2022-12-22T03:56:51.814Z,0.50
2022-12-22T03:59:20.528Z,0.50
2022-12-22T04:01:51.627Z,0.50
2022-12-22T04:04:23.378Z,0.50
2022-12-22T04:06:51.940Z,0.50
2022-12-22T04:09:22.204Z,0.50
2022-12-22T04:12:07.996Z,0.50
2022-12-22T04:14:36.311Z,0.50
2022-12-22T04:17:05.103Z,0.50
2022-12-22T04:19:34.898Z,0.50
2022-12-22T04:22:03.159Z,0.50
2022-12-22T04:24:31.434Z,0.50
2022-12-22T04:26:59.632Z,0.60
2022-12-22T04:29:27.784Z,0.60
2022-12-22T04:31:56.190Z,0.60
2022-12-22T04:34:24.522Z,0.50
2022-12-22T04:36:54.330Z,0.50
2022-12-22T04:39:22.542Z,0.50
2022-12-22T04:41:50.705Z,0.50
2022-12-22T04:44:18.898Z,0.60
2022-12-22T04:46:47.540Z,0.60
2022-12-22T04:49:15.724Z,0.50
2022-12-22T04:51:43.818Z,0.60
2022-12-22T04:54:13.848Z,0.60
2022-12-22T04:56:42.072Z,0.50
2022-12-22T04:59:10.316Z,0.50
2022-12-22T05:01:38.648Z,0.40
2022-12-22T05:04:06.854Z,0.40
2022-12-22T05:06:35.212Z,0.40
2022-12-22T05:09:03.551Z,0.30
2022-12-22T05:11:33.229Z,0.40
2022-12-22T05:14:07.008Z,0.40
2022-12-22T05:16:35.826Z,0.30
2022-12-22T05:19:04.134Z,0.40
2022-12-22T05:21:32.339Z,0.30
2022-12-22T05:24:00.556Z,0.30
2022-12-22T05:26:28.972Z,0.30
2022-12-22T05:28:58.697Z,0.30
2022-12-22T05:31:27.669Z,0.30
2022-12-22T05:33:55.949Z,0.30
2022-12-22T05:36:24.139Z,0.30
2022-12-22T05:38:52.515Z,0.40
2022-12-22T05:41:20.774Z,0.40
2022-12-22T05:43:48.976Z,0.40
2022-12-22T05:46:18.674Z,0.30
2022-12-22T05:48:46.953Z,0.20
2022-12-22T05:51:15.055Z,0.20
2022-12-22T05:53:43.463Z,0.20
2022-12-22T05:56:11.729Z,0.10
2022-12-22T05:58:40.752Z,0.20
2022-12-22T06:01:09.296Z,0.10
2022-12-22T06:03:39.091Z,0.20
2022-12-22T06:06:07.842Z,0.20
2022-12-22T06:08:35.997Z,0.20
2022-12-22T06:11:04.263Z,0.20
2022-12-22T06:13:32.455Z,0.20
2022-12-22T06:16:00.796Z,0.20
2022-12-22T06:18:29.427Z,0.20
2022-12-22T06:20:59.039Z,0.20
2022-12-22T06:23:27.275Z,0.20
2022-12-22T06:25:56.961Z,0.20
2022-12-22T06:28:25.643Z,0.20
2022-12-22T06:30:53.872Z,0.10
2022-12-22T06:33:22.413Z,0.10
2022-12-22T06:35:57.536Z,0.10
2022-12-22T06:38:28.552Z,0.10
2022-12-22T06:40:57.023Z,0.10
2022-12-22T06:43:24.129Z,0.10
2022-12-22T06:45:52.474Z,0.10
2022-12-22T06:48:20.949Z,0.10
2022-12-22T06:50:49.240Z,0.10
2022-12-22T06:53:17.955Z,0.10
2022-12-22T06:55:47.798Z,0.00
2022-12-22T06:58:16.079Z,0.00
2022-12-22T07:00:45.551Z,0.00
2022-12-22T07:03:14.028Z,0.00
2022-12-22T07:05:42.376Z,0.00
2022-12-22T07:08:10.659Z,-0.10
2022-12-22T07:10:56.152Z,-0.10
2022-12-22T07:13:27.516Z,-0.10
2022-12-22T07:16:00.451Z,0.00
2022-12-22T07:18:30.248Z,0.00
2022-12-22T07:20:58.677Z,0.00
2022-12-22T07:23:27.161Z,0.00
2022-12-22T07:25:55.422Z,0.00
2022-12-22T07:28:25.357Z,0.00
2022-12-22T07:30:54.314Z,0.00
2022-12-22T07:33:22.932Z,0.00
2022-12-22T07:36:01.346Z,0.10
2022-12-22T07:38:29.538Z,0.10
2022-12-22T07:41:04.997Z,0.10
2022-12-22T07:43:34.652Z,0.10
2022-12-22T07:46:02.983Z,0.10
2022-12-22T07:48:48.633Z,0.10
2022-12-22T07:51:16.908Z,0.10
2022-12-22T07:53:45.170Z,0.20
2022-12-22T07:56:13.394Z,0.10
2022-12-22T07:58:43.083Z,0.10
2022-12-22T08:01:11.322Z,0.10
2022-12-22T08:03:39.451Z,0.20
2022-12-22T08:06:08.622Z,0.20
2022-12-22T08:08:36.942Z,0.20
2022-12-22T08:11:05.588Z,0.20
2022-12-22T08:13:34.182Z,0.20
2022-12-22T08:16:06.811Z,0.20
2022-12-22T08:18:35.817Z,0.20
2022-12-22T08:21:05.262Z,0.30
2022-12-22T08:23:33.673Z,0.20
2022-12-22T08:26:05.596Z,0.30
2022-12-22T08:28:39.425Z,0.30
2022-12-22T08:31:09.474Z,0.30
2022-12-22T08:33:37.984Z,0.40
2022-12-22T08:36:08.724Z,0.40
2022-12-22T08:38:37.725Z,0.40
2022-12-22T08:41:06.359Z,0.40
2022-12-22T08:43:35.014Z,0.50
2022-12-22T08:46:03.433Z,0.50
2022-12-22T08:48:33.236Z,0.50
2022-12-22T08:51:01.588Z,0.60
2022-12-22T08:54:03.074Z,0.60
2022-12-22T08:56:18.005Z,0.70
2022-12-22T08:58:46.188Z,0.70
2022-12-22T09:01:18.322Z,0.70
2022-12-22T09:03:51.582Z,0.70
2022-12-22T09:06:26.540Z,0.70
2022-12-22T09:08:56.336Z,0.70
2022-12-22T09:11:25.033Z,0.70
2022-12-22T09:13:54.119Z,0.70
2022-12-22T09:16:23.678Z,0.70
2022-12-22T09:18:53.658Z,0.70
2022-12-22T09:21:21.840Z,0.60
2022-12-22T09:23:50.044Z,0.60
2022-12-22T09:26:21.553Z,0.70
2022-12-22T09:28:50.682Z,0.70
2022-12-22T09:31:19.934Z,0.60
2022-12-22T09:33:48.499Z,0.60
2022-12-22T09:36:20.487Z,0.70
2022-12-22T09:38:48.728Z,0.60
2022-12-22T09:41:19.914Z,0.70
2022-12-22T09:43:48.766Z,0.70
2022-12-22T09:46:22.832Z,0.70
2022-12-22T09:48:51.671Z,0.70
2022-12-22T09:51:26.799Z,0.70
2022-12-22T09:53:59.201Z,0.70
2022-12-22T09:56:28.690Z,0.70
2022-12-22T09:58:58.427Z,0.70
2022-12-22T10:01:37.156Z,0.70
2022-12-22T10:04:12.885Z,0.70
2022-12-22T10:06:48.456Z,0.80
2022-12-22T10:09:48.305Z,0.80
2022-12-22T10:12:16.705Z,0.70
2022-12-22T10:14:46.963Z,0.70
2022-12-22T10:17:21.015Z,0.70
2022-12-22T10:19:50.927Z,0.70
2022-12-22T10:22:30.005Z,0.80
2022-12-22T10:24:58.924Z,0.80
2022-12-22T10:27:31.051Z,0.80
2022-12-22T10:30:21.488Z,0.80
2022-12-22T10:33:04.783Z,0.80
2022-12-22T10:35:49.921Z,0.90
2022-12-22T10:38:24.479Z,0.90
2022-12-22T10:41:01.810Z,0.90
2022-12-22T10:43:33.807Z,0.90
2022-12-22T10:46:03.452Z,0.80
2022-12-22T10:48:34.420Z,0.80
2022-12-22T10:51:03.705Z,0.80
2022-12-22T10:53:47.553Z,0.90
2022-12-22T10:56:25.187Z,0.90
2022-12-22T10:58:55.469Z,1.00
2022-12-22T11:01:29.228Z,0.90
2022-12-22T11:03:58.485Z,0.90
2022-12-22T11:06:26.774Z,0.90
2022-12-22T11:09:23.689Z,0.90
2022-12-22T11:11:51.426Z,0.90
2022-12-22T11:14:30.306Z,1.00
2022-12-22T11:17:04.405Z,1.00
2022-12-22T11:19:51.492Z,1.10
2022-12-22T11:22:32.724Z,1.10
2022-12-22T11:25:19.265Z,1.00
2022-12-22T11:28:01.281Z,1.10
2022-12-22T11:30:40.080Z,1.00
2022-12-22T11:33:23.064Z,1.00
2022-12-22T11:35:59.790Z,1.00
2022-12-22T11:38:39.863Z,1.00
2022-12-22T11:41:21.750Z,1.00
2022-12-22T11:44:00.937Z,1.00
2022-12-22T11:46:35.889Z,1.00
2022-12-22T11:49:17.487Z,1.00
2022-12-22T11:52:12.475Z,1.00
2022-12-22T11:55:00.945Z,1.00
2022-12-22T11:57:40.540Z,1.10
2022-12-22T12:00:13.220Z,1.00
2022-12-22T12:03:26.764Z,1.10
2022-12-22T12:06:30.627Z,1.10
2022-12-22T12:09:12.088Z,1.10
2022-12-22T12:11:47.244Z,1.20
2022-12-22T12:14:25.655Z,1.20
2022-12-22T12:16:59.844Z,1.20
2022-12-22T12:20:05.682Z,1.20
2022-12-22T12:22:44.646Z,1.20
2022-12-22T12:25:26.140Z,1.30
2022-12-22T12:28:07.521Z,1.30
2022-12-22T12:30:45.864Z,1.30
2022-12-22T12:33:18.420Z,1.30
2022-12-22T12:35:59.835Z,1.30
2022-12-22T12:41:31.501Z,1.40
2022-12-22T12:44:00.532Z,1.40
2022-12-22T12:47:13.612Z,1.50
2022-12-22T12:50:07.294Z,1.50
2022-12-22T12:53:18.001Z,1.50
2022-12-22T12:56:03.779Z,1.50
2022-12-22T12:58:53.063Z,1.50
2022-12-22T13:02:02.210Z,1.50
2022-12-22T13:05:13.134Z,1.60
2022-12-22T13:08:24.185Z,1.60
2022-12-22T13:11:52.633Z,1.60
2022-12-22T13:14:10.773Z,1.70
2022-12-22T13:16:40.752Z,1.80
2022-12-22T13:19:34.951Z,1.80
2022-12-22T13:22:04.035Z,1.80
2022-12-22T13:24:46.984Z,1.80
2022-12-22T13:27:17.184Z,1.80
2022-12-22T13:29:48.348Z,1.80
2022-12-22T13:32:22.342Z,1.80
2022-12-22T13:35:29.572Z,1.90
2022-12-22T13:37:48.891Z,1.80
2022-12-22T13:40:20.675Z,1.90
2022-12-22T13:42:51.708Z,2.00
2022-12-22T13:45:32.707Z,2.00
2022-12-22T13:48:03.402Z,2.10
2022-12-22T13:50:38.151Z,2.10
2022-12-22T13:53:09.307Z,2.10
2022-12-22T13:55:37.767Z,2.20
2022-12-22T13:58:09.359Z,2.20
2022-12-22T14:00:37.625Z,2.20
2022-12-22T14:03:27.782Z,2.20
2022-12-22T14:06:20.563Z,2.20
2022-12-22T14:08:48.776Z,2.20
2022-12-22T14:11:16.996Z,2.20
2022-12-22T14:13:45.458Z,2.20
2022-12-22T14:16:16.013Z,2.10
2022-12-22T14:18:44.542Z,2.10
2022-12-22T14:21:14.519Z,2.10
2022-12-22T14:23:44.257Z,2.10
2022-12-22T14:26:18.917Z,2.10
2022-12-22T14:28:53.179Z,2.10
2022-12-22T14:31:21.902Z,2.10
2022-12-22T14:33:55.371Z,2.10
2022-12-22T14:36:26.851Z,2.10
2022-12-22T14:38:56.321Z,2.10
2022-12-22T14:41:43.024Z,2.10
2022-12-22T14:44:17.276Z,2.10
2022-12-22T14:46:46.733Z,2.10
2022-12-22T14:49:17.890Z,2.10
2022-12-22T14:52:01.105Z,2.10
2022-12-22T14:54:30.047Z,2.10
2022-12-22T14:57:08.530Z,2.10
2022-12-22T14:59:41.497Z,2.20
2022-12-22T15:02:23.822Z,2.20
2022-12-22T15:05:11.273Z,2.20
2022-12-22T15:08:05.225Z,2.20
2022-12-22T15:10:39.527Z,2.20
2022-12-22T15:13:13.279Z,2.30
2022-12-22T15:15:41.594Z,2.30
2022-12-22T15:18:15.632Z,2.30
2022-12-22T15:20:43.936Z,2.30
2022-12-22T15:23:17.418Z,2.30
2022-12-22T15:25:45.968Z,2.40
2022-12-22T15:28:14.267Z,2.40
2022-12-22T15:30:42.849Z,2.40
2022-12-22T15:33:14.483Z,2.40
2022-12-22T15:35:43.774Z,2.40
2022-12-22T15:38:16.287Z,2.40
2022-12-22T15:40:45.096Z,2.50
2022-12-22T15:43:53.400Z,2.40
2022-12-22T15:46:05.074Z,2.40
2022-12-22T15:48:36.383Z,2.40
2022-12-22T15:51:06.987Z,2.40
2022-12-22T15:53:38.163Z,2.40
2022-12-22T15:56:11.149Z,2.40
2022-12-22T15:58:42.363Z,2.40
2022-12-22T16:01:11.896Z,2.40
2022-12-22T16:03:40.325Z,2.30
2022-12-22T16:06:14.387Z,2.30
2022-12-22T16:08:47.160Z,2.40
2022-12-22T16:11:15.382Z,2.40
2022-12-22T16:13:43.752Z,2.40
2022-12-22T16:16:12.260Z,2.40
2022-12-22T16:18:40.705Z,2.40
2022-12-22T16:21:14.466Z,2.40
2022-12-22T16:23:47.881Z,2.40
2022-12-22T16:26:19.237Z,2.40
2022-12-22T16:28:47.608Z,2.50
2022-12-22T16:31:21.326Z,2.60
2022-12-22T16:33:49.942Z,2.60
2022-12-22T16:36:18.474Z,2.70
2022-12-22T16:38:48.729Z,2.70
2022-12-22T16:41:23.072Z,2.80
2022-12-22T16:43:52.456Z,2.90
2022-12-22T16:46:24.048Z,2.90
2022-12-22T16:48:54.432Z,3.00
2022-12-22T16:51:25.383Z,2.90
2022-12-22T16:53:55.184Z,2.90
2022-12-22T16:56:26.900Z,2.90
2022-12-22T16:58:55.127Z,2.90
2022-12-22T17:01:31.943Z,2.80
2022-12-22T17:04:04.886Z,2.80
2022-12-22T17:06:33.464Z,2.70
2022-12-22T17:09:03.848Z,2.70
2022-12-22T17:11:32.760Z,2.60
2022-12-22T17:14:06.637Z,2.60
2022-12-22T17:16:34.981Z,2.60
2022-12-22T17:19:03.262Z,2.50
2022-12-22T17:21:31.821Z,2.50
2022-12-22T17:24:04.875Z,2.50
2022-12-22T17:26:35.553Z,2.50
2022-12-22T17:29:03.770Z,2.50
2022-12-22T17:31:32.043Z,2.50
2022-12-22T17:34:00.509Z,2.50
2022-12-22T17:36:33.199Z,2.50
2022-12-22T17:39:04.686Z,2.50
2022-12-22T17:41:33.224Z,2.50
2022-12-22T17:44:01.374Z,2.50
2022-12-22T17:46:29.671Z,2.50
2022-12-22T17:48:57.999Z,2.50
2022-12-22T17:51:29.415Z,2.60
2022-12-22T17:53:59.337Z,2.60
2022-12-22T17:56:31.791Z,2.60
2022-12-22T17:59:00.315Z,2.70
2022-12-22T18:01:30.991Z,2.70
2022-12-22T18:03:59.524Z,2.80
2022-12-22T18:06:31.430Z,2.80
2022-12-22T18:08:59.771Z,2.90
2022-12-22T18:11:29.427Z,3.00
2022-12-22T18:13:59.613Z,3.00
2022-12-22T18:16:28.576Z,3.00
2022-12-22T18:18:56.940Z,3.00
2022-12-22T18:21:26.482Z,3.10
2022-12-22T18:23:54.700Z,3.10
2022-12-22T18:26:25.538Z,3.10
2022-12-22T18:28:56.248Z,3.20
2022-12-22T18:31:25.905Z,3.10
2022-12-22T18:33:54.409Z,3.20
2022-12-22T18:36:31.993Z,3.20
2022-12-22T18:39:02.415Z,3.30
2022-12-22T18:41:32.854Z,3.30
2022-12-22T18:44:02.565Z,3.40
2022-12-22T18:46:30.839Z,3.40
2022-12-22T18:49:05.112Z,3.50
2022-12-22T18:51:33.970Z,3.60
2022-12-22T18:54:02.552Z,3.60
2022-12-22T18:56:30.728Z,3.70
2022-12-22T18:58:58.891Z,3.70
2022-12-22T19:01:29.165Z,3.70
2022-12-22T19:03:59.001Z,3.70
2022-12-22T19:06:27.280Z,3.80
2022-12-22T19:08:55.499Z,4.00
2022-12-22T19:11:28.691Z,4.10
2022-12-22T19:13:57.032Z,4.30
2022-12-22T19:16:29.053Z,4.50
2022-12-22T19:18:59.994Z,4.60
2022-12-22T19:21:28.260Z,4.70
2022-12-22T19:23:56.516Z,5.10
2022-12-22T19:26:27.119Z,5.30
2022-12-22T19:28:57.317Z,5.50
2022-12-22T19:31:30.379Z,5.80
2022-12-22T19:34:00.678Z,6.60
2022-12-22T19:36:31.384Z,6.90
2022-12-22T19:39:04.731Z,7.20
2022-12-22T19:41:46.108Z,7.40
2022-12-22T19:44:20.527Z,7.70
2022-12-22T19:46:50.877Z,7.70
2022-12-22T19:49:21.302Z,7.80
2022-12-22T19:51:50.148Z,7.80
2022-12-22T19:54:19.543Z,7.80
2022-12-22T19:56:50.841Z,7.90
2022-12-22T19:59:28.493Z,8.00
2022-12-22T20:02:02.335Z,8.00
2022-12-22T20:05:01.990Z,8.30
2022-12-22T20:07:32.959Z,8.50
2022-12-22T20:10:01.100Z,8.60
2022-12-22T20:12:33.096Z,8.60
2022-12-22T20:15:01.889Z,8.70
2022-12-22T20:17:31.412Z,8.70
2022-12-22T20:19:59.657Z,8.70
2022-12-22T20:22:28.298Z,8.60
2022-12-22T20:24:56.580Z,8.50
2022-12-22T20:27:30.198Z,8.60
2022-12-22T20:29:58.367Z,8.60
2022-12-22T20:32:28.231Z,8.70
2022-12-22T20:34:58.494Z,8.70
2022-12-22T20:37:27.670Z,8.80
2022-12-22T20:39:56.014Z,8.80
2022-12-22T20:42:27.056Z,8.80
2022-12-22T20:45:02.642Z,8.70
2022-12-22T20:47:33.359Z,8.70
2022-12-22T20:50:03.318Z,8.60
2022-12-22T20:52:31.435Z,8.60
2022-12-22T20:54:59.757Z,8.60
2022-12-22T20:57:28.549Z,8.70
2022-12-22T20:59:57.038Z,8.80
2022-12-22T21:02:28.828Z,8.80
2022-12-22T21:04:57.500Z,8.80
2022-12-22T21:07:27.181Z,8.90
2022-12-22T21:09:55.241Z,8.90
2022-12-22T21:12:23.483Z,9.00
2022-12-22T21:14:52.027Z,9.20
2022-12-22T21:17:20.972Z,9.10
2022-12-22T21:19:49.750Z,9.10
2022-12-22T21:22:17.942Z,9.10
2022-12-22T21:24:47.727Z,9.20
2022-12-22T21:27:20.079Z,9.20
2022-12-22T21:29:48.870Z,9.20
2022-12-22T21:32:17.471Z,9.20
2022-12-22T21:34:45.956Z,9.30
2022-12-22T21:37:18.705Z,9.30
2022-12-22T21:39:48.544Z,9.20
2022-12-22T21:42:18.341Z,9.20
2022-12-22T21:44:47.078Z,9.10
2022-12-22T21:47:18.033Z,9.00
2022-12-22T21:49:46.130Z,9.00
2022-12-22T21:52:14.243Z,9.00
2022-12-22T21:54:42.465Z,9.10
2022-12-22T21:57:17.079Z,9.10
2022-12-22T21:59:45.536Z,9.00
2022-12-22T22:02:17.506Z,9.00
2022-12-22T22:04:52.149Z,9.00
2022-12-22T22:07:22.594Z,9.00
2022-12-22T22:09:50.773Z,8.90
2022-12-22T22:12:37.479Z,8.80
2022-12-22T22:15:06.722Z,8.80
2022-12-22T22:17:35.375Z,8.80
2022-12-22T22:20:03.593Z,8.80
2022-12-22T22:22:31.858Z,8.70
2022-12-22T22:24:59.979Z,8.70
2022-12-22T22:27:29.804Z,8.70
2022-12-22T22:29:58.070Z,8.60
2022-12-22T22:32:26.262Z,8.60
2022-12-22T22:34:54.588Z,8.50
2022-12-22T22:37:23.043Z,8.50
2022-12-22T22:39:51.242Z,8.50
2022-12-22T22:42:19.497Z,8.60
2022-12-22T22:44:49.396Z,8.60
2022-12-22T22:47:17.623Z,8.60
2022-12-22T22:49:45.867Z,8.80
2022-12-22T22:52:13.969Z,8.80
2022-12-22T22:54:42.170Z,8.80
2022-12-22T22:57:10.527Z,8.80
2022-12-22T22:59:38.709Z,8.80
2022-12-22T23:02:08.550Z,8.80
2022-12-22T23:04:36.787Z,8.70
2022-12-22T23:07:04.884Z,8.70
2022-12-22T23:09:33.535Z,8.60
2022-12-22T23:12:01.794Z,8.50
2022-12-22T23:14:30.111Z,8.50
2022-12-22T23:16:58.324Z,8.40
2022-12-22T23:19:28.311Z,8.30
2022-12-22T23:21:56.466Z,8.30
2022-12-22T23:24:24.603Z,8.30
2022-12-22T23:26:53.219Z,8.20
2022-12-22T23:29:21.395Z,8.20
2022-12-22T23:31:49.661Z,8.10
2022-12-22T23:34:18.026Z,8.10
2022-12-22T23:36:47.752Z,8.10
2022-12-22T23:39:16.227Z,8.10
2022-12-22T23:41:44.473Z,8.00
2022-12-22T23:44:12.719Z,8.00
2022-12-22T23:46:41.885Z,8.00
2022-12-22T23:49:12.760Z,8.00
2022-12-22T23:51:41.217Z,8.00
2022-12-22T23:54:10.814Z,7.90
2022-12-22T23:56:39.081Z,7.90
2022-12-22T23:59:07.280Z,7.80
